Time;durP1;ratioP1;P1;durP2;ratioP2;P2;SDS_P1;SDS_P2;PMS_P1;PMS_P2;Temp;Humidity;BMP_temperature;BMP_pressure;BME280_temperature;BME280_humidity;BME280_pressure;Samples;Min_cycle;Max_cycle;Signal;HPM_P1;HPM_P2
2022/08/25 00:00:50;;;;;;;53.45;9.00;;;;;;;23.49;100.00;10619.78;5072912;28;20181;-61
2022/08/25 00:03:17;;;;;;;60.65;9.70;;;;;;;23.53;100.00;12584.88;5072992;28;20200;-60
2022/08/25 00:05:44;;;;;;;55.65;8.68;;;;;;;23.53;100.00;11929.91;5072691;28;20185;-61
2022/08/25 00:08:11;;;;;;;65.40;10.25;;;;;;;23.47;100.00;11928.41;5072944;28;20194;-61
2022/08/25 00:10:39;;;;;;;61.92;9.43;;;;;;;23.39;100.00;12908.66;5072639;28;20199;-61
2022/08/25 00:13:07;;;;;;;69.38;10.13;;;;;;;23.21;100.00;11922.16;5072861;28;20187;-61
2022/08/25 00:15:35;;;;;;;59.60;9.43;;;;;;;23.23;100.00;11595.44;5072520;28;20189;-60
2022/08/25 00:18:04;;;;;;;68.07;9.23;;;;;;;23.23;100.00;10286.84;5072561;28;20184;-61
2022/08/25 00:20:31;;;;;;;55.50;9.77;;;;;;;23.03;100.00;9628.53;5072621;28;20205;-60
2022/08/25 00:22:58;;;;;;;68.38;9.70;;;;;;;23.14;100.00;8650.09;5072596;28;20255;-61
2022/08/25 00:25:25;;;;;;;66.00;10.57;;;;;;;23.19;100.00;7670.44;5072589;28;20620;-60
2022/08/25 00:27:54;;;;;;;55.42;10.38;;;;;;;23.18;100.00;6363.44;5072284;28;20176;-61
2022/08/25 00:30:21;;;;;;;59.47;10.40;;;;;;;22.91;100.00;4074.28;5072343;28;20207;-61
2022/08/25 00:32:48;;;;;;;63.03;10.32;;;;;;;23.20;100.00;3098.63;5071981;28;20181;-60
2022/08/25 00:35:16;;;;;;;73.38;11.05;;;;;;;23.15;100.00;1466.84;5072268;28;20188;-61
2022/08/25 00:37:43;;;;;;;70.13;10.60;;;;;;;23.17;100.00;488.66;5072597;28;20651;-60
2022/08/25 00:40:11;;;;;;;58.42;9.98;;;;;;;23.14;100.00;-489.59;5071255;28;20620;-61
2022/08/25 00:42:40;;;;;;;56.38;8.75;;;;;;;23.11;100.00;1792.72;5072799;28;20212;-60
2022/08/25 00:45:09;;;;;;;55.50;9.73;;;;;;;23.12;100.00;1792.75;5072167;28;20631;-61
2022/08/25 00:47:36;;;;;;;62.58;9.50;;;;;;;23.20;100.00;7997.44;5072153;28;20233;-61
2022/08/25 00:50:07;;;;;;;85.05;10.90;;;;;;;23.34;100.00;14217.03;5072239;28;20231;-61
2022/08/25 00:52:38;;;;;;;75.95;9.95;;;;;;;23.46;100.00;18154.00;5072148;28;20188;-60
2022/08/25 00:55:09;;;;;;;59.25;9.68;;;;;;;23.45;100.00;24719.34;5072301;28;20290;-61
2022/08/25 00:57:40;;;;;;;74.47;10.70;;;;;;;23.54;100.00;13567.56;5072038;28;20203;-61
2022/08/25 01:00:11;;;;;;;78.07;11.25;;;;;;;23.57;100.00;8985.56;5072381;28;20612;-60
2022/08/25 01:02:38;;;;;;;65.68;10.50;;;;;;;23.51;100.00;8330.22;5072182;28;20627;-61
2022/08/25 01:05:06;;;;;;;69.38;10.20;;;;;;;23.41;100.00;7020.56;5071893;28;20658;-60
2022/08/25 01:07:35;;;;;;;79.93;10.98;;;;;;;23.32;100.00;5712.09;5072299;28;20189;-60
2022/08/25 01:10:02;;;;;;;57.63;10.05;;;;;;;23.30;100.00;5711.81;5075346;28;20211;-60
2022/08/25 01:12:29;;;;;;;61.80;10.02;;;;;;;23.22;100.00;4731.06;5075036;28;20192;-61
2022/08/25 01:14:57;;;;;;;78.25;10.35;;;;;;;23.21;100.00;2772.38;5075461;28;20195;-60
2022/08/25 01:17:26;;;;;;;76.50;10.48;;;;;;;23.22;100.00;4731.06;5074971;28;20189;-60
2022/08/25 01:19:54;;;;;;;74.78;11.38;;;;;;;23.23;100.00;5057.72;5073882;28;20219;-61
2022/08/25 01:22:25;;;;;;;66.18;10.57;;;;;;;23.19;100.00;4730.66;5075120;28;20236;-61
2022/08/25 01:24:58;;;;;;;56.42;9.77;;;;;;;23.21;100.00;5057.44;5075053;28;20204;-61
2022/08/25 01:27:25;;;;;;;64.55;9.63;;;;;;;23.20;100.00;7343.94;5075908;28;21040;-61
2022/08/25 01:29:56;;;;;;;68.70;10.18;;;;;;;23.06;100.00;29960.84;5075479;28;20185;-60
2022/08/25 01:32:23;;;;;;;70.18;9.65;;;;;;;23.26;100.00;41507.59;5075167;28;20275;-61
2022/08/25 01:34:50;;;;;;;63.03;9.18;;;;;;;23.36;100.00;47133.03;5075288;28;20601;-60
2022/08/25 01:37:18;;;;;;;63.40;9.20;;;;;;;23.36;100.00;56407.47;5075061;28;20185;-61
2022/08/25 01:39:46;;;;;;;66.50;8.73;;;;;;;23.52;100.00;68054.91;5075480;28;20601;-60
2022/08/25 01:42:24;;;;;;;58.88;8.00;;;;;;;23.59;100.00;74728.44;5075175;28;20219;-61
2022/08/25 01:44:51;;;;;;;55.38;9.05;;;;;;;23.65;100.00;91458.00;5075208;28;20637;-60
2022/08/25 01:47:18;;;;;;;49.25;7.30;;;;;;;23.64;100.00;95818.19;5075184;28;20545;-60
2022/08/25 01:49:45;;;;;;;62.95;8.38;;;;;;;23.67;100.00;99517.59;5075129;28;20195;-60
2022/08/25 01:52:16;;;;;;;61.92;8.10;;;;;;;23.69;100.00;107931.53;5074884;28;20189;-60
2022/08/25 01:54:43;;;;;;;54.38;7.68;;;;;;;23.70;100.00;106249.41;5075207;28;20605;-61
2022/08/25 01:57:11;;;;;;;55.83;8.13;;;;;;;23.74;100.00;118399.88;5075207;28;20207;-61
2022/08/25 01:59:38;;;;;;;45.35;7.72;;;;;;;23.75;100.00;119076.72;5074900;28;20196;-61
2022/08/25 02:02:05;;;;;;;58.13;7.85;;;;;;;23.64;100.00;122774.63;5074812;28;20207;-61
2022/08/25 02:04:32;;;;;;;38.03;7.35;;;;;;;23.79;100.00;122129.00;5074852;28;20689;-60
2022/08/25 02:06:59;;;;;;;63.17;7.72;;;;;;;23.84;100.00;126200.28;5074584;28;20184;-60
2022/08/25 02:09:26;;;;;;;40.47;7.47;;;;;;;23.87;100.00;138761.34;5074820;28;20192;-60
2022/08/25 02:11:53;;;;;;;53.92;7.63;;;;;;;23.88;100.00;143919.41;5074464;28;20276;-61
2022/08/25 02:14:22;;;;;;;55.13;7.68;;;;;;;24.01;100.00;151742.72;5074357;28;20191;-60
2022/08/25 02:16:52;;;;;;;50.15;6.70;;;;;;;24.07;100.00;152092.53;5074701;28;20189;-61
2022/08/25 02:19:20;;;;;;;40.05;7.65;;;;;;;24.09;100.00;152097.66;5073361;28;20615;-61
2022/08/25 02:21:47;;;;;;;59.10;7.35;;;;;;;24.12;100.00;152105.31;5074184;28;20301;-62
2022/08/25 02:24:14;;;;;;;69.57;9.27;;;;;;;24.05;100.00;152086.16;5074468;28;20675;-60
2022/08/25 02:26:41;;;;;;;50.13;6.97;;;;;;;24.17;100.00;152116.84;5074581;28;20303;-62
2022/08/25 02:29:09;;;;;;;46.70;7.00;;;;;;;24.13;100.00;152107.88;5074134;28;20193;-60
2022/08/25 02:31:38;;;;;;;56.65;7.38;;;;;;;24.20;100.00;152123.22;5074129;28;20203;-60
2022/08/25 02:34:06;;;;;;;50.90;7.53;;;;;;;24.18;100.00;152118.13;5074060;28;20184;-61
2022/08/25 02:36:33;;;;;;;58.13;8.25;;;;;;;24.17;100.00;152116.84;5074382;28;20550;-61
2022/08/25 02:39:00;;;;;;;59.45;7.43;;;;;;;24.14;100.00;152109.16;5073937;28;20199;-60
2022/08/25 02:41:28;;;;;;;54.45;7.65;;;;;;;23.95;100.00;152061.91;5074202;28;20189;-60
2022/08/25 02:43:55;;;;;;;38.47;7.57;;;;;;;23.98;100.00;152068.25;5073858;28;20205;-60
2022/08/25 02:46:23;;;;;;;57.83;7.82;;;;;;;23.95;100.00;152060.63;5073956;28;20298;-61
2022/08/25 02:48:52;;;;;;;49.47;7.45;;;;;;;23.89;100.00;152046.56;5074212;28;20651;-60
2022/08/25 02:51:20;;;;;;;51.88;7.40;;;;;;;23.80;100.00;152023.63;5073985;28;20185;-61
2022/08/25 02:53:47;;;;;;;50.92;8.18;;;;;;;23.76;100.00;150188.34;5073934;28;20184;-61
2022/08/25 02:56:17;;;;;;;52.05;7.43;;;;;;;23.50;100.00;147893.50;5074201;28;20185;-61
2022/08/25 02:58:45;;;;;;;47.50;7.43;;;;;;;23.67;100.00;147953.13;5073644;28;20234;-61
2022/08/25 03:01:12;;;;;;;46.15;8.57;;;;;;;23.55;100.00;147827.50;5073553;28;20196;-61
2022/08/25 03:03:40;;;;;;;57.88;8.50;;;;;;;23.44;100.00;146656.31;5073424;28;20211;-60
2022/08/25 03:06:10;;;;;;;40.15;7.78;;;;;;;23.47;100.00;138669.28;5073648;28;20685;-61
2022/08/25 03:08:37;;;;;;;42.25;7.15;;;;;;;23.51;100.00;137660.75;5073440;28;20191;-60
2022/08/25 03:11:04;;;;;;;50.67;7.75;;;;;;;23.58;100.00;139374.53;5073682;28;20181;-61
2022/08/25 03:13:32;;;;;;;36.53;7.55;;;;;;;23.52;100.00;139360.47;5073472;28;20185;-60
2022/08/25 03:15:59;;;;;;;45.28;7.80;;;;;;;23.31;100.00;129813.25;5073600;28;20191;-60
2022/08/25 03:18:26;;;;;;;48.13;7.95;;;;;;;23.34;100.00;117644.91;5073255;28;20212;-60
2022/08/25 03:20:53;;;;;;;44.78;8.02;;;;;;;23.29;100.00;115611.06;5073535;28;20228;-60
2022/08/25 03:23:21;;;;;;;40.53;8.05;;;;;;;23.31;100.00;116626.28;5073281;28;20189;-60
2022/08/25 03:28:33;;;;;;;47.35;7.75;;;;;;;23.32;100.00;119329.31;5073139;28;20176;-61
2022/08/25 03:31:01;;;;;;;48.45;7.32;;;;;;;23.23;100.00;119313.25;5071504;28;20189;-60
2022/08/25 03:33:28;;;;;;;57.20;8.40;;;;;;;23.34;100.00;121022.59;5073017;28;20192;-61
2022/08/25 03:35:56;;;;;;;54.53;8.02;;;;;;;23.45;100.00;123074.63;5073141;28;20192;-60
2022/08/25 03:38:25;;;;;;;46.40;7.15;;;;;;;23.58;100.00;135979.09;5073350;28;20206;-61
2022/08/25 03:40:53;;;;;;;49.88;7.78;;;;;;;23.42;100.00;138997.31;5073036;28;20185;-61
2022/08/25 03:43:20;;;;;;;36.35;6.72;;;;;;;23.62;100.00;145905.28;5072652;28;20183;-60
2022/08/25 03:45:47;;;;;;;35.40;7.13;;;;;;;23.68;100.00;151731.81;5072763;28;20192;-60
2022/08/25 03:48:15;;;;;;;46.25;7.47;;;;;;;23.74;100.00;152008.28;5072600;28;20189;-60
2022/08/25 03:50:45;;;;;;;46.65;8.10;;;;;;;23.79;100.00;152021.06;5072848;28;20548;-60
2022/08/25 03:53:12;;;;;;;50.33;7.50;;;;;;;23.78;100.00;152017.22;5072498;28;20230;-61
2022/08/25 03:55:41;;;;;;;48.58;7.60;;;;;;;23.83;100.00;152030.00;5073035;28;20555;-61
2022/08/25 03:58:08;;;;;;;52.05;8.00;;;;;;;23.74;100.00;152008.28;5072446;28;20203;-60
2022/08/25 04:00:35;;;;;;;58.45;7.95;;;;;;;23.78;100.00;152018.50;5072677;28;20192;-61
2022/08/25 04:03:02;;;;;;;44.90;7.50;;;;;;;23.85;100.00;152036.34;5072474;28;20191;-60
2022/08/25 04:05:29;;;;;;;40.72;7.13;;;;;;;23.71;100.00;152000.66;5072060;28;20303;-60
2022/08/25 04:07:56;;;;;;;39.22;7.65;;;;;;;23.82;100.00;152027.41;5072534;28;20181;-62
2022/08/25 04:10:22;;;;;;;45.72;7.15;;;;;;;23.93;100.00;152055.53;5072539;28;20279;-60
2022/08/25 04:12:51;;;;;;;51.28;6.97;;;;;;;23.70;100.00;151996.81;5072562;28;20193;-61
2022/08/25 04:15:18;;;;;;;41.03;7.22;;;;;;;23.87;100.00;152040.19;5072083;28;20196;-60
2022/08/25 04:17:45;;;;;;;29.38;7.10;;;;;;;23.63;100.00;151981.50;5072589;28;20631;-61
2022/08/25 04:20:12;;;;;;;29.55;6.97;;;;;;;23.88;100.00;152044.03;5072459;28;20196;-61
2022/08/25 04:22:39;;;;;;;38.83;7.60;;;;;;;24.00;100.00;152074.69;5071993;28;20224;-61
2022/08/25 04:25:07;;;;;;;28.20;6.05;;;;;;;24.06;100.00;152088.72;5072279;28;20208;-62
2022/08/25 04:27:34;;;;;;;42.75;7.43;;;;;;;23.80;100.00;152022.34;5071942;28;20188;-60
2022/08/25 04:30:03;;;;;;;26.75;8.13;;;;;;;24.25;100.00;152137.28;5072288;28;20654;-61
2022/08/25 04:32:31;;;;;;;52.88;7.55;;;;;;;24.38;100.00;152169.19;5072007;28;20259;-60
2022/08/25 04:34:57;;;;;;;38.47;8.65;;;;;;;24.46;100.00;152189.63;5072332;28;20216;-61
2022/08/25 04:37:24;;;;;;;27.00;6.53;;;;;;;24.73;100.00;152258.59;5071752;28;20184;-55
2022/08/25 04:39:51;;;;;;;43.72;7.28;;;;;;;24.80;100.00;152276.47;5071832;28;20196;-54
2022/08/25 04:42:18;;;;;;;54.42;7.57;;;;;;;24.87;100.00;152294.38;5071453;28;20654;-52
2022/08/25 04:44:45;;;;;;;57.95;7.45;;;;;;;24.98;100.00;152321.22;5072614;28;20686;-61
2022/08/25 04:47:13;;;;;;;53.53;7.80;;;;;;;25.07;100.00;152342.94;5071879;28;20189;-61
2022/08/25 04:49:40;;;;;;;47.70;7.30;;;;;;;25.28;100.00;152396.59;5072628;28;20189;-61
2022/08/25 04:52:07;;;;;;;49.25;7.88;;;;;;;25.33;100.00;152410.63;5071901;28;20184;-61
2022/08/25 04:54:34;;;;;;;37.80;8.68;;;;;;;25.41;100.00;152429.84;5071939;28;20275;-60
2022/08/25 04:57:01;;;;;;;66.28;9.65;;;;;;;25.65;100.00;152489.91;5071992;28;20238;-61
2022/08/25 04:59:28;;;;;;;59.95;8.18;;;;;;;25.75;100.00;152515.50;5071696;28;20193;-62
2022/08/25 05:01:56;;;;;;;45.90;8.07;;;;;;;26.05;100.00;152590.91;5072191;28;20632;-62
2022/08/25 05:04:24;;;;;;;34.70;6.57;;;;;;;26.27;100.00;152647.16;5072065;28;20205;-62
2022/08/25 05:06:51;;;;;;;38.85;7.47;;;;;;;26.70;100.00;152757.16;5072172;28;20181;-62
2022/08/25 05:09:18;;;;;;;37.88;7.53;;;;;;;26.93;100.00;152813.47;5072261;28;20643;-61
2022/08/25 05:11:45;;;;;;;32.25;6.95;;;;;;;27.32;100.00;152912.00;5072019;28;20547;-63
2022/08/25 05:14:14;;;;;;;45.70;8.07;;;;;;;27.62;100.00;152990.09;5071614;28;20187;-61
2022/08/25 05:16:41;;;;;;;41.72;8.05;;;;;;;27.75;100.00;153022.09;5070507;28;20181;-63
2022/08/25 05:19:08;;;;;;;30.10;6.90;;;;;;;28.14;100.00;153121.94;5053736;28;20201;-62
2022/08/25 05:21:37;;;;;;;35.65;6.78;;;;;;;28.48;100.00;153206.41;5070234;28;20232;-62
2022/08/25 05:24:04;;;;;;;30.38;6.13;;;;;;;29.27;100.00;153406.25;5071554;28;20220;-62
2022/08/25 05:26:33;;;;;;;33.15;6.18;;;;;;;29.73;100.00;153522.88;5071942;28;20655;-62
2022/08/25 05:29:03;;;;;;;33.22;6.68;;;;;;;29.78;100.00;153535.69;5071495;28;20180;-62
2022/08/25 05:31:31;;;;;;;18.42;5.75;;;;;;;29.24;100.00;153399.81;5071813;28;20188;-63
2022/08/25 05:33:59;;;;;;;31.10;7.32;;;;;;;28.55;100.00;153224.38;5071437;28;20199;-61
2022/08/25 05:36:28;;;;;;;28.35;7.10;;;;;;;28.43;100.00;153193.66;5071473;28;20220;-63
2022/08/25 05:38:56;;;;;;;37.53;7.43;;;;;;;28.39;100.00;153184.66;5071626;28;20559;-62
2022/08/25 05:41:28;;;;;;;49.10;7.32;;;;;;;28.36;100.00;153176.97;5071623;28;20181;-61
2022/08/25 05:43:55;;;;;;;34.50;6.82;;;;;;;28.30;100.00;153160.34;5071526;28;20181;-62
2022/08/25 05:46:22;;;;;;;34.92;7.68;;;;;;;28.36;100.00;153175.69;5071231;28;20256;-62
2022/08/25 05:48:50;;;;;;;35.20;8.25;;;;;;;28.17;100.00;153128.34;5070292;28;20189;-62
2022/08/25 05:51:18;;;;;;;36.42;8.15;;;;;;;27.87;100.00;153051.50;5071512;28;20199;-63
2022/08/25 05:53:48;;;;;;;27.50;7.28;;;;;;;27.82;100.00;153038.69;5072148;28;20270;-63
2022/08/25 05:56:17;;;;;;;26.58;6.90;;;;;;;27.75;100.00;153020.81;5074680;28;20196;-61
2022/08/25 05:58:44;;;;;;;34.35;7.55;;;;;;;27.51;100.00;152961.91;5074869;28;20192;-61
2022/08/25 06:04:07;;;;;;;26.38;7.20;;;;;;;27.17;100.00;152874.88;5074307;28;20203;-62
2022/08/25 06:06:34;;;;;;;26.45;6.90;;;;;;;27.27;100.00;152900.47;5074223;28;20259;-61
2022/08/25 06:09:07;;;;;;;35.75;6.97;;;;;;;27.66;100.00;152999.03;5074434;28;20198;-61
2022/08/25 06:11:36;;;;;;;22.13;6.65;;;;;;;28.04;100.00;153095.03;5074605;28;20594;-62
2022/08/25 06:14:03;;;;;;;26.33;6.60;;;;;;;28.29;100.00;153159.06;5074469;28;20631;-61
2022/08/25 06:16:30;;;;;;;32.53;6.65;;;;;;;28.64;100.00;153247.41;5045122;28;20208;-62
2022/08/25 06:18:57;;;;;;;17.17;6.28;;;;;;;29.24;100.00;153399.81;5056331;28;20676;-62
2022/08/25 06:21:24;;;;;;;29.00;5.80;;;;;;;30.11;100.00;153620.31;5054240;28;20735;-60
2022/08/25 06:23:51;;;;;;;37.03;15.98;;;;;;;31.27;100.00;153915.22;5053986;28;20195;-62
2022/08/25 06:26:18;;;;;;;26.08;6.07;;;;;;;32.51;100.00;154229.66;5053893;28;20210;-62
2022/08/25 06:28:47;;;;;;;37.28;8.88;;;;;;;33.34;100.00;154439.00;5053941;28;20208;-63
2022/08/25 06:31:13;;;;;;;33.83;6.40;;;;;;;33.27;100.00;154421.03;5054258;28;20189;-62
2022/08/25 06:33:40;;;;;;;27.85;7.38;;;;;;;33.59;100.00;154501.91;5054182;28;20185;-61
2022/08/25 06:36:08;;;;;;;31.13;5.80;;;;;;;32.74;100.00;154286.19;5054141;28;20272;-62
2022/08/25 06:38:36;;;;;;;30.58;6.35;;;;;;;32.74;100.00;154286.19;5053666;28;20710;-62
2022/08/25 06:41:03;;;;;;;22.55;5.75;;;;;;;31.58;100.00;153992.25;5053790;28;20193;-66
2022/08/25 06:43:31;;;;;;;21.33;5.65;;;;;;;31.18;100.00;153892.19;5053890;28;20547;-65
2022/08/25 06:46:08;;;;;;;13.13;5.43;;;;;;;31.56;100.00;153988.44;5053649;28;20217;-65
2022/08/25 06:48:36;;;;;;;18.42;5.18;;;;;;;31.57;100.00;153989.72;5053366;28;20189;-66
2022/08/25 06:51:06;;;;;;;25.35;5.55;;;;;;;31.77;100.00;154039.72;5053506;28;20272;-65
2022/08/25 06:53:33;;;;;;;15.85;5.68;;;;;;;32.04;100.00;154109.03;5053457;28;20177;-61
2022/08/25 06:56:13;;;;;;;12.93;4.63;;;;;;;32.16;100.00;154141.16;5054124;28;20185;-62
2022/08/25 06:58:42;;;;;;;12.13;4.90;;;;;;;31.79;100.00;154046.13;5053431;28;20259;-60
2022/08/25 07:01:13;;;;;;;21.58;4.95;;;;;;;31.86;100.00;154064.13;5053360;28;20272;-61
2022/08/25 07:03:41;;;;;;;15.43;5.95;;;;;;;31.85;100.00;154060.25;5054533;28;20193;-60
2022/08/25 07:06:08;;;;;;;11.95;4.60;;;;;;;31.73;100.00;154032.03;5053269;28;20237;-60
2022/08/25 07:08:36;;;;;;;17.00;5.03;;;;;;;30.59;100.00;153740.84;5053471;28;20265;-65
2022/08/25 07:11:06;;;;;;;21.15;5.95;;;;;;;30.40;100.00;153693.34;5053189;28;20185;-63
2022/08/25 07:13:33;;;;;;;9.48;5.25;;;;;;;30.40;100.00;153694.66;5053976;28;20193;-64
2022/08/25 07:16:00;;;;;;;15.95;4.50;;;;;;;30.35;100.00;153681.81;5053603;28;20212;-64
2022/08/25 07:18:29;;;;;;;16.77;5.18;;;;;;;30.22;100.00;153647.19;5053320;28;20196;-65
2022/08/25 07:20:56;;;;;;;15.45;4.80;;;;;;;30.33;100.00;153676.72;5054172;28;20193;-66
2022/08/25 07:23:24;;;;;;;11.63;4.93;;;;;;;30.35;100.00;153681.81;5053428;28;20200;-65
2022/08/25 07:25:51;;;;;;;20.15;5.13;;;;;;;30.07;100.00;153610.06;5052883;28;20209;-65
2022/08/25 07:28:19;;;;;;;13.45;5.15;;;;;;;30.23;100.00;153651.06;5052826;28;20195;-64
2022/08/25 07:30:49;;;;;;;8.73;4.57;;;;;;;30.31;100.00;153670.28;5053204;28;20192;-65
2022/08/25 07:33:16;;;;;;;18.30;5.00;;;;;;;30.14;100.00;153628.00;5053107;28;20239;-62
2022/08/25 07:35:44;;;;;;;18.58;5.10;;;;;;;30.03;100.00;153599.81;5035134;28;20200;-64
2022/08/25 07:38:11;;;;;;;21.88;4.82;;;;;;;30.33;100.00;153676.72;5052695;28;20197;-62
2022/08/25 07:40:38;;;;;;;33.90;6.82;;;;;;;30.65;100.00;153756.22;5052643;28;20192;-62
2022/08/25 07:43:09;;;;;;;21.95;4.75;;;;;;;30.64;100.00;153753.69;5052761;28;20185;-62
2022/08/25 07:45:38;;;;;;;19.55;5.07;;;;;;;30.68;100.00;153763.94;5052556;28;20300;-65
2022/08/25 07:48:08;;;;;;;15.18;4.60;;;;;;;30.88;100.00;153815.19;5052563;28;20196;-64
2022/08/25 07:50:37;;;;;;;17.35;4.78;;;;;;;31.11;100.00;153872.91;5052469;28;20181;-65
2022/08/25 07:53:06;;;;;;;16.75;4.43;;;;;;;31.54;100.00;153981.94;5052438;28;20194;-64
2022/08/25 07:55:35;;;;;;;17.48;5.00;;;;;;;31.37;100.00;153938.31;5052345;28;20185;-65
2022/08/25 07:58:04;;;;;;;16.73;5.07;;;;;;;31.59;100.00;153994.81;5052639;28;20648;-65
2022/08/25 08:00:32;;;;;;;30.40;4.82;;;;;;;30.85;100.00;153807.53;5052219;28;20272;-65
2022/08/25 08:03:00;;;;;;;12.77;4.20;;;;;;;31.92;100.00;154078.19;5052227;28;20200;-64
2022/08/25 08:05:28;;;;;;;30.45;7.25;;;;;;;32.04;100.00;154110.25;5051852;28;20261;-65
2022/08/25 08:07:55;;;;;;;20.38;4.43;;;;;;;32.28;100.00;154170.66;5053084;28;20597;-64
2022/08/25 08:10:24;;;;;;;23.02;4.80;;;;;;;32.38;100.00;154196.28;5052132;28;20192;-65
2022/08/25 08:12:52;;;;;;;11.27;4.43;;;;;;;32.76;100.00;154292.56;5052096;28;20231;-64
2022/08/25 08:15:19;;;;;;;20.40;4.22;;;;;;;32.89;100.00;154325.94;5052016;28;20189;-65
2022/08/25 08:17:46;;;;;;;16.17;4.03;;;;;;;32.32;100.00;154180.91;5051267;28;20560;-64
2022/08/25 08:20:14;;;;;;;17.20;4.15;;;;;;;32.52;100.00;154230.94;5052133;28;20204;-65
2022/08/25 08:22:44;;;;;;;19.83;4.43;;;;;;;32.67;100.00;154269.50;5051852;28;20232;-64
2022/08/25 08:25:12;;;;;;;24.25;5.40;;;;;;;32.98;100.00;154349.06;5051759;28;20252;-64
2022/08/25 08:27:41;;;;;;;87.45;61.50;;;;;;;33.35;100.00;154441.56;5051753;28;20199;-65
2022/08/25 08:30:09;;;;;;;84.55;66.70;;;;;;;33.57;100.00;154498.03;5051825;28;20243;-64
2022/08/25 08:32:36;;;;;;;14.55;4.15;;;;;;;33.73;100.00;154539.22;5051928;28;20192;-65
2022/08/25 08:35:04;;;;;;;12.68;4.22;;;;;;;33.48;100.00;154476.22;5051697;28;20272;-64
2022/08/25 08:37:31;;;;;;;22.00;4.65;;;;;;;33.70;100.00;154530.19;5051926;28;20239;-64
2022/08/25 08:40:00;;;;;;;14.70;4.07;;;;;;;33.86;100.00;154571.31;5050776;28;20196;-63
2022/08/25 08:42:47;;;;;;;14.65;4.05;;;;;;;33.88;100.00;154576.44;5051997;28;20556;-64
2022/08/25 08:45:27;;;;;;;9.02;4.03;;;;;;;33.82;100.00;154562.28;5051454;28;20628;-64
2022/08/25 08:48:08;;;;;;;8.45;3.85;;;;;;;33.59;100.00;154503.19;5050803;28;20284;-65
2022/08/25 08:50:43;;;;;;;15.90;3.97;;;;;;;33.91;100.00;154585.41;5051700;28;20196;-64
2022/08/25 08:53:19;;;;;;;19.38;4.50;;;;;;;34.22;100.00;154662.53;5051457;28;20184;-64
2022/08/25 08:55:51;;;;;;;20.27;4.47;;;;;;;34.21;100.00;154659.97;5051670;28;20181;-63
2022/08/25 08:58:21;;;;;;;27.50;4.70;;;;;;;34.20;100.00;154657.44;5050268;28;20185;-65
2022/08/25 09:00:53;;;;;;;14.18;3.80;;;;;;;33.97;97.89;154600.84;5051542;28;20178;-64
2022/08/25 09:03:29;;;;;;;13.60;3.95;;;;;;;33.71;99.92;154534.06;5054248;28;20316;-64
2022/08/25 09:06:00;;;;;;;18.42;3.75;;;;;;;33.90;100.00;154582.88;5060698;28;20690;-65
2022/08/25 09:08:27;;;;;;;18.75;4.20;;;;;;;33.90;98.33;154582.88;5067464;28;20200;-64
2022/08/25 09:11:02;;;;;;;15.43;3.70;;;;;;;33.75;99.04;154543.03;5063108;28;20273;-65
2022/08/25 09:13:41;;;;;;;12.32;4.03;;;;;;;33.40;98.61;154455.66;5051371;28;20189;-64
2022/08/25 09:19:11;;;;;;;16.58;4.18;;;;;;;33.67;95.28;154523.78;5068796;28;20208;-63
2022/08/25 09:21:48;;;;;;;14.38;3.80;;;;;;;33.51;97.76;154482.66;5068441;28;20239;-64
2022/08/25 09:24:36;;;;;;;28.20;4.15;;;;;;;33.35;99.07;154441.56;5071525;28;20192;-65
2022/08/25 09:27:15;;;;;;;18.02;4.50;;;;;;;33.49;99.81;154478.78;5071130;28;20211;-65
2022/08/25 09:29:56;;;;;;;13.88;4.43;;;;;;;33.34;98.88;154440.28;5073077;28;20234;-64
2022/08/25 09:32:25;;;;;;;22.20;4.70;;;;;;;33.70;98.15;154531.47;5071612;28;20201;-65
2022/08/25 09:34:54;;;;;;;28.65;5.55;;;;;;;34.22;86.00;154662.53;5067150;28;20200;-64
2022/08/25 09:37:24;;;;;;;13.75;4.28;;;;;;;33.89;86.05;154580.31;5075092;28;20188;-64
2022/08/25 09:39:50;;;;;;;7.85;4.20;;;;;;;34.01;83.04;154608.53;5075481;28;20679;-64
2022/08/25 09:42:19;;;;;;;14.88;4.38;;;;;;;33.34;85.87;154440.28;5075318;28;20181;-66
2022/08/25 09:44:48;;;;;;;14.65;4.38;;;;;;;33.24;92.57;154413.31;5075058;28;20192;-64
2022/08/25 09:47:22;;;;;;;18.63;4.78;;;;;;;33.97;86.44;154599.56;5074700;28;20215;-64
2022/08/25 09:49:53;;;;;;;15.93;4.28;;;;;;;34.32;83.62;154689.53;5075654;28;20648;-64
2022/08/25 09:52:31;;;;;;;15.90;4.93;;;;;;;34.89;75.01;154832.19;5074694;28;20606;-64
2022/08/25 09:55:01;;;;;;;13.30;3.80;;;;;;;34.94;71.42;154845.03;5074910;28;20203;-64
2022/08/25 09:57:32;;;;;;;16.20;4.75;;;;;;;34.42;70.39;154713.91;5075089;28;20650;-64
2022/08/25 10:00:12;;;;;;;16.88;3.80;;;;;;;34.74;70.15;154796.22;5074825;28;20195;-63
2022/08/25 10:02:41;;;;;;;10.65;4.40;;;;;;;34.96;67.65;154850.19;5075180;28;20184;-64
2022/08/25 10:05:25;;;;;;;19.48;4.60;;;;;;;35.11;68.24;154890.03;5073646;28;20271;-64
2022/08/25 10:07:56;;;;;;;19.23;3.50;;;;;;;35.33;68.42;154944.06;5074554;28;20275;-63
2022/08/25 10:10:29;;;;;;;8.70;4.32;;;;;;;35.18;68.14;154906.81;5074837;28;20635;-65
2022/08/25 10:12:59;;;;;;;12.20;4.43;;;;;;;35.36;67.12;154953.03;5074759;28;20196;-64
2022/08/25 10:15:31;;;;;;;13.35;4.78;;;;;;;35.59;64.89;155012.19;5074870;28;20181;-65
2022/08/25 10:18:19;;;;;;;20.27;4.35;;;;;;;35.57;64.93;155007.03;5075398;28;20191;-63
2022/08/25 10:21:01;;;;;;;16.27;4.65;;;;;;;35.41;65.58;154965.91;5074406;28;20200;-66
2022/08/25 10:23:29;;;;;;;21.15;3.92;;;;;;;35.38;63.62;154958.22;5074721;28;20299;-63
2022/08/25 10:25:59;;;;;;;15.00;5.10;;;;;;;35.23;64.27;154920.91;5073840;28;20209;-60
2022/08/25 10:28:35;;;;;;;28.58;5.43;;;;;;;34.10;61.02;154631.66;5074563;28;20669;-58
2022/08/25 10:31:13;;;;;;;40.88;6.90;;;;;;;33.97;64.01;154600.84;5074694;28;20196;-63
2022/08/25 10:33:50;;;;;;;20.83;5.43;;;;;;;34.02;65.44;154611.13;5074798;28;20262;-64
2022/08/25 10:36:22;;;;;;;32.28;6.63;;;;;;;33.40;65.71;154454.38;5074861;28;20264;-62
2022/08/25 10:38:55;;;;;;;30.85;5.30;;;;;;;33.44;66.75;154465.94;5074527;28;20184;-65
2022/08/25 10:41:38;;;;;;;37.78;6.55;;;;;;;33.55;67.33;154492.94;5073018;28;20187;-64
2022/08/25 10:47:27;;;;;;;33.85;6.20;;;;;;;33.73;64.55;154539.22;5073964;28;20269;-65
2022/08/25 10:49:56;;;;;;;36.72;6.45;;;;;;;33.74;66.53;154540.47;5074404;28;20647;-65
2022/08/25 10:52:35;;;;;;;33.42;6.85;;;;;;;33.00;67.49;154354.22;5074081;28;20188;-64
2022/08/25 10:55:13;;;;;;;23.25;6.07;;;;;;;33.07;71.31;154370.88;5074353;28;20228;-63
2022/08/25 10:57:46;;;;;;;22.13;5.40;;;;;;;32.85;70.02;154315.69;5073768;28;20191;-64
2022/08/25 11:00:17;;;;;;;23.70;6.18;;;;;;;33.38;65.12;154449.25;5073857;28;20283;-64
2022/08/25 11:03:06;;;;;;;44.47;6.07;;;;;;;33.52;63.50;154485.25;5072857;28;20249;-64
2022/08/25 11:05:40;;;;;;;29.75;5.43;;;;;;;33.55;65.16;154491.63;5072245;28;20207;-63
2022/08/25 11:08:16;;;;;;;26.23;6.40;;;;;;;33.19;68.66;154401.75;5073315;28;20238;-63
2022/08/25 11:10:49;;;;;;;50.05;6.70;;;;;;;33.63;69.19;154513.47;5073349;28;20180;-63
2022/08/25 11:13:22;;;;;;;41.60;6.18;;;;;;;33.11;66.62;154379.88;5073774;28;20268;-65
2022/08/25 11:15:54;;;;;;;33.83;6.25;;;;;;;32.61;64.68;154254.03;5073738;28;20185;-63
2022/08/25 11:18:30;;;;;;;41.60;5.53;;;;;;;32.79;66.05;154299.03;5073479;28;20189;-63
2022/08/25 11:21:05;;;;;;;36.17;5.95;;;;;;;32.61;68.33;154255.38;5073646;28;20200;-63
2022/08/25 11:23:37;;;;;;;36.03;6.57;;;;;;;32.53;71.96;154233.50;5073623;28;20225;-63
2022/08/25 11:26:10;;;;;;;33.10;5.70;;;;;;;32.80;71.29;154301.59;5073537;28;20231;-64
2022/08/25 11:28:49;;;;;;;20.92;5.80;;;;;;;32.84;71.02;154313.16;5073667;28;20185;-63
2022/08/25 11:31:18;;;;;;;41.03;6.55;;;;;;;32.30;72.57;154175.75;5073292;28;20657;-63
2022/08/25 11:33:48;;;;;;;39.97;6.45;;;;;;;32.40;73.54;154200.16;5072910;28;20195;-63